Hauptseite
METAR-TAF:

METAR-TAF

Flughäfen :

Maastricht Aachen Airport

Maastricht Aachen, Niederlande

Breite: 50-55N, Länge: 005-47E, Höhe: 114 m

Beobachtung

Neuester Wetterbericht von vor 42 Minuten, um 18:55 UTC
Wind 3 kt aus Süd
Temperatur 25°C
Luftfeuchtigkeit 34%
Luftdruck 1015 hPa
Sichtweite 10 km oder mehr

METAR: EHBK 051855Z AUTO 19003KT 9999 NSC 25/08 Q1015 NOSIG

Zeit: 21:37 (19:37 UTC)

Prognose

Neuester Wetterbericht von vor 2 Stunden und 24 Minuten, um 17:13 UTC
Gültige Prognose vom 05 um 18 UTC bis 06 um 24 UTC
Wind 6 kt aus Süd/Südwest
Sichtweite 10 km oder mehr
keine Wolken unter 1500 m und keine Kumulonimbus oder Gewitterwolken

TAF: EHBK 051713Z 0518/0624 20006KT CAVOK

Wetterbeobachtungen und Prognosen von mehr als 4000 Flughäfen (METAR und TAF Bericht).

Die verfügbaren Stationen werden durch gelbe und rote Markierungen auf der Karte dargestellt.

Führen Sie die Maus auf sie, um den Namen der Station zu sehen.

Darauf klicken, um die Beobachtung von Wetterbeobachtungen und Prognosen zu sehen.

Um die Karte zu ändern : klicken Sie auf den grünen Tasten mit einem schwarzen Kreuz Zum Vergrößern, auf den grünen Button mit einem Gedankenstrich zu verkleinern, oder auf die grünen Pfeile für benachbarte Karten.


METAR-TAF: